sensor_id;sensor_type;location;lat;lon;timestamp;temperature;humidity
61912;DHT22;49973;52.084;5.412;2022-07-29T00:01:46;16.80;86.60
61912;DHT22;49973;52.084;5.412;2022-07-29T00:04:18;16.80;87.50
61912;DHT22;49973;52.084;5.412;2022-07-29T00:06:49;16.80;86.90
61912;DHT22;49973;52.084;5.412;2022-07-29T00:09:18;16.70;86.90
61912;DHT22;49973;52.084;5.412;2022-07-29T00:11:47;16.70;87.00
61912;DHT22;49973;52.084;5.412;2022-07-29T00:14:16;16.70;87.10
61912;DHT22;49973;52.084;5.412;2022-07-29T00:16:45;16.60;87.10
61912;DHT22;49973;52.084;5.412;2022-07-29T00:19:14;16.60;87.20
61912;DHT22;49973;52.084;5.412;2022-07-29T00:21:43;16.60;87.30
61912;DHT22;49973;52.084;5.412;2022-07-29T00:24:13;16.50;87.30
61912;DHT22;49973;52.084;5.412;2022-07-29T00:26:42;16.50;87.50
61912;DHT22;49973;52.084;5.412;2022-07-29T00:29:11;16.50;87.60
61912;DHT22;49973;52.084;5.412;2022-07-29T00:32:00;16.40;87.50
61912;DHT22;49973;52.084;5.412;2022-07-29T00:34:29;16.40;87.60
61912;DHT22;49973;52.084;5.412;2022-07-29T00:37:15;16.40;87.80
61912;DHT22;49973;52.084;5.412;2022-07-29T00:39:45;16.30;87.70
61912;DHT22;49973;52.084;5.412;2022-07-29T00:42:13;16.30;87.90
61912;DHT22;49973;52.084;5.412;2022-07-29T00:44:43;16.30;88.00
61912;DHT22;49973;52.084;5.412;2022-07-29T00:47:12;16.30;88.20
61912;DHT22;49973;52.084;5.412;2022-07-29T00:49:42;16.20;88.10
61912;DHT22;49973;52.084;5.412;2022-07-29T00:52:11;16.20;88.30
61912;DHT22;49973;52.084;5.412;2022-07-29T00:54:44;16.20;88.40
61912;DHT22;49973;52.084;5.412;2022-07-29T00:57:13;16.10;88.40
61912;DHT22;49973;52.084;5.412;2022-07-29T00:59:42;16.10;88.40
61912;DHT22;49973;52.084;5.412;2022-07-29T01:02:11;16.10;88.60
61912;DHT22;49973;52.084;5.412;2022-07-29T01:04:40;16.10;88.70
61912;DHT22;49973;52.084;5.412;2022-07-29T01:07:10;16.10;88.90
61912;DHT22;49973;52.084;5.412;2022-07-29T01:09:39;16.10;89.00
61912;DHT22;49973;52.084;5.412;2022-07-29T01:12:17;16.00;89.00
61912;DHT22;49973;52.084;5.412;2022-07-29T01:14:47;16.00;89.10
61912;DHT22;49973;52.084;5.412;2022-07-29T01:17:21;16.00;90.00
61912;DHT22;49973;52.084;5.412;2022-07-29T01:19:58;16.00;89.30
61912;DHT22;49973;52.084;5.412;2022-07-29T01:22:53;15.90;89.30
61912;DHT22;49973;52.084;5.412;2022-07-29T01:25:48;15.90;89.50
61912;DHT22;49973;52.084;5.412;2022-07-29T01:29:00;15.90;90.10
61912;DHT22;49973;52.084;5.412;2022-07-29T01:31:42;15.80;89.40
61912;DHT22;49973;52.084;5.412;2022-07-29T01:34:31;15.80;89.60
61912;DHT22;49973;52.084;5.412;2022-07-29T01:37:10;15.80;90.10
61912;DHT22;49973;52.084;5.412;2022-07-29T01:39:46;15.70;89.80
61912;DHT22;49973;52.084;5.412;2022-07-29T01:42:22;15.70;89.90
61912;DHT22;49973;52.084;5.412;2022-07-29T01:44:57;15.80;90.00
61912;DHT22;49973;52.084;5.412;2022-07-29T01:47:31;15.70;90.00
61912;DHT22;49973;52.084;5.412;2022-07-29T01:50:05;15.70;90.10
61912;DHT22;49973;52.084;5.412;2022-07-29T01:52:39;15.70;90.10
61912;DHT22;49973;52.084;5.412;2022-07-29T01:55:12;15.70;90.20
61912;DHT22;49973;52.084;5.412;2022-07-29T01:57:44;15.70;90.20
61912;DHT22;49973;52.084;5.412;2022-07-29T02:00:16;15.60;90.20
61912;DHT22;49973;52.084;5.412;2022-07-29T02:02:47;15.60;90.30
61912;DHT22;49973;52.084;5.412;2022-07-29T02:05:18;15.70;90.40
61912;DHT22;49973;52.084;5.412;2022-07-29T02:07:49;15.60;90.30
61912;DHT22;49973;52.084;5.412;2022-07-29T02:10:23;15.70;90.50
61912;DHT22;49973;52.084;5.412;2022-07-29T02:12:54;15.70;90.50
61912;DHT22;49973;52.084;5.412;2022-07-29T02:15:27;15.70;90.60
61912;DHT22;49973;52.084;5.412;2022-07-29T02:18:01;15.70;90.60
61912;DHT22;49973;52.084;5.412;2022-07-29T02:20:30;15.70;90.60
61912;DHT22;49973;52.084;5.412;2022-07-29T02:23:02;15.70;90.70
61912;DHT22;49973;52.084;5.412;2022-07-29T02:25:31;15.70;91.00
61912;DHT22;49973;52.084;5.412;2022-07-29T02:28:05;15.70;90.70
61912;DHT22;49973;52.084;5.412;2022-07-29T02:30:40;15.70;90.80
61912;DHT22;49973;52.084;5.412;2022-07-29T02:33:13;15.70;90.90
61912;DHT22;49973;52.084;5.412;2022-07-29T02:35:46;15.70;90.90
61912;DHT22;49973;52.084;5.412;2022-07-29T02:38:16;15.70;91.00
61912;DHT22;49973;52.084;5.412;2022-07-29T02:41:05;15.70;91.00
61912;DHT22;49973;52.084;5.412;2022-07-29T02:43:36;15.70;91.00
61912;DHT22;49973;52.084;5.412;2022-07-29T02:46:13;15.60;91.00
61912;DHT22;49973;52.084;5.412;2022-07-29T02:48:59;15.70;91.10
61912;DHT22;49973;52.084;5.412;2022-07-29T02:51:41;15.70;91.10
61912;DHT22;49973;52.084;5.412;2022-07-29T02:54:18;15.60;91.10
61912;DHT22;49973;52.084;5.412;2022-07-29T02:56:48;15.60;91.20
61912;DHT22;49973;52.084;5.412;2022-07-29T02:59:25;15.60;91.20
61912;DHT22;49973;52.084;5.412;2022-07-29T03:01:57;15.60;91.30
61912;DHT22;49973;52.084;5.412;2022-07-29T03:04:28;15.60;91.30
61912;DHT22;49973;52.084;5.412;2022-07-29T03:07:00;15.60;91.40
61912;DHT22;49973;52.084;5.412;2022-07-29T03:09:29;15.60;91.40
61912;DHT22;49973;52.084;5.412;2022-07-29T03:11:59;15.60;91.50
61912;DHT22;49973;52.084;5.412;2022-07-29T03:14:29;15.60;91.50
61912;DHT22;49973;52.084;5.412;2022-07-29T03:17:00;15.60;91.50
61912;DHT22;49973;52.084;5.412;2022-07-29T03:19:29;15.60;91.60
61912;DHT22;49973;52.084;5.412;2022-07-29T03:21:58;15.60;91.60
61912;DHT22;49973;52.084;5.412;2022-07-29T03:24:29;15.50;91.60
61912;DHT22;49973;52.084;5.412;2022-07-29T03:26:58;15.50;91.70
61912;DHT22;49973;52.084;5.412;2022-07-29T03:29:27;15.50;91.70
61912;DHT22;49973;52.084;5.412;2022-07-29T03:32:04;15.50;91.70
61912;DHT22;49973;52.084;5.412;2022-07-29T03:34:36;15.50;91.80
61912;DHT22;49973;52.084;5.412;2022-07-29T03:37:06;15.50;91.80
61912;DHT22;49973;52.084;5.412;2022-07-29T03:39:38;15.50;91.90
61912;DHT22;49973;52.084;5.412;2022-07-29T03:42:11;15.50;92.00
61912;DHT22;49973;52.084;5.412;2022-07-29T03:44:42;15.50;92.00
61912;DHT22;49973;52.084;5.412;2022-07-29T03:47:14;15.50;92.00
61912;DHT22;49973;52.084;5.412;2022-07-29T03:49:44;15.60;92.10
61912;DHT22;49973;52.084;5.412;2022-07-29T03:52:15;15.50;92.10
61912;DHT22;49973;52.084;5.412;2022-07-29T03:54:44;15.50;92.10
61912;DHT22;49973;52.084;5.412;2022-07-29T03:57:15;15.50;92.20
61912;DHT22;49973;52.084;5.412;2022-07-29T03:59:45;15.50;92.30
61912;DHT22;49973;52.084;5.412;2022-07-29T04:02:15;15.50;92.30
61912;DHT22;49973;52.084;5.412;2022-07-29T04:04:49;15.50;92.30
61912;DHT22;49973;52.084;5.412;2022-07-29T04:07:18;15.50;92.30
61912;DHT22;49973;52.084;5.412;2022-07-29T04:09:48;15.50;92.40
61912;DHT22;49973;52.084;5.412;2022-07-29T04:12:17;15.50;92.40
61912;DHT22;49973;52.084;5.412;2022-07-29T04:14:46;15.50;92.50
61912;DHT22;49973;52.084;5.412;2022-07-29T04:17:16;15.50;92.50
61912;DHT22;49973;52.084;5.412;2022-07-29T04:19:44;15.50;92.60
61912;DHT22;49973;52.084;5.412;2022-07-29T04:22:13;15.50;92.60
61912;DHT22;49973;52.084;5.412;2022-07-29T04:24:41;15.50;92.70
61912;DHT22;49973;52.084;5.412;2022-07-29T04:27:11;15.50;92.70
61912;DHT22;49973;52.084;5.412;2022-07-29T04:29:39;15.50;92.80
61912;DHT22;49973;52.084;5.412;2022-07-29T04:32:25;15.50;92.80
61912;DHT22;49973;52.084;5.412;2022-07-29T04:34:54;15.50;92.80
61912;DHT22;49973;52.084;5.412;2022-07-29T04:37:22;15.60;92.90
61912;DHT22;49973;52.084;5.412;2022-07-29T04:39:51;15.60;93.20
61912;DHT22;49973;52.084;5.412;2022-07-29T04:42:20;15.60;93.00
61912;DHT22;49973;52.084;5.412;2022-07-29T04:44:55;15.60;93.00
61912;DHT22;49973;52.084;5.412;2022-07-29T04:47:28;15.60;93.10
61912;DHT22;49973;52.084;5.412;2022-07-29T04:49:57;15.60;93.10
61912;DHT22;49973;52.084;5.412;2022-07-29T04:52:26;15.60;93.10
61912;DHT22;49973;52.084;5.412;2022-07-29T04:54:55;15.60;93.20
61912;DHT22;49973;52.084;5.412;2022-07-29T04:57:23;15.60;93.20
61912;DHT22;49973;52.084;5.412;2022-07-29T04:59:52;15.60;93.30
61912;DHT22;49973;52.084;5.412;2022-07-29T05:02:21;15.60;93.30
61912;DHT22;49973;52.084;5.412;2022-07-29T05:04:51;15.60;93.40
61912;DHT22;49973;52.084;5.412;2022-07-29T05:07:20;15.60;93.40
61912;DHT22;49973;52.084;5.412;2022-07-29T05:09:49;15.60;93.50
61912;DHT22;49973;52.084;5.412;2022-07-29T05:12:17;15.70;93.60
61912;DHT22;49973;52.084;5.412;2022-07-29T05:14:46;15.60;93.90
61912;DHT22;49973;52.084;5.412;2022-07-29T05:17:15;15.70;93.70
61912;DHT22;49973;52.084;5.412;2022-07-29T05:19:44;15.70;93.70
61912;DHT22;49973;52.084;5.412;2022-07-29T05:22:14;15.70;94.10
61912;DHT22;49973;52.084;5.412;2022-07-29T05:24:43;15.70;93.80
61912;DHT22;49973;52.084;5.412;2022-07-29T05:27:13;15.70;93.80
61912;DHT22;49973;52.084;5.412;2022-07-29T05:29:42;15.80;93.90
61912;DHT22;49973;52.084;5.412;2022-07-29T05:32:12;15.80;94.00
61912;DHT22;49973;52.084;5.412;2022-07-29T05:34:41;15.90;94.10
61912;DHT22;49973;52.084;5.412;2022-07-29T05:37:19;15.90;94.20
61912;DHT22;49973;52.084;5.412;2022-07-29T05:39:48;16.00;94.30
61912;DHT22;49973;52.084;5.412;2022-07-29T05:42:25;16.10;94.40
61912;DHT22;49973;52.084;5.412;2022-07-29T05:44:54;16.00;94.30
61912;DHT22;49973;52.084;5.412;2022-07-29T05:47:23;16.20;94.50
61912;DHT22;49973;52.084;5.412;2022-07-29T05:49:52;16.20;94.50
61912;DHT22;49973;52.084;5.412;2022-07-29T05:52:23;16.20;94.60
61912;DHT22;49973;52.084;5.412;2022-07-29T05:54:53;16.30;95.00
61912;DHT22;49973;52.084;5.412;2022-07-29T05:57:23;16.40;94.80
61912;DHT22;49973;52.084;5.412;2022-07-29T05:59:52;16.40;94.80
61912;DHT22;49973;52.084;5.412;2022-07-29T06:02:21;16.50;94.90
61912;DHT22;49973;52.084;5.412;2022-07-29T06:04:50;16.50;95.00
61912;DHT22;49973;52.084;5.412;2022-07-29T06:07:18;16.60;95.10
61912;DHT22;49973;52.084;5.412;2022-07-29T06:09:49;16.60;95.10
61912;DHT22;49973;52.084;5.412;2022-07-29T06:12:17;16.60;95.20
61912;DHT22;49973;52.084;5.412;2022-07-29T06:14:46;16.60;95.20
61912;DHT22;49973;52.084;5.412;2022-07-29T06:17:20;16.60;95.30
61912;DHT22;49973;52.084;5.412;2022-07-29T06:19:49;16.60;95.30
61912;DHT22;49973;52.084;5.412;2022-07-29T06:22:18;16.60;95.40
61912;DHT22;49973;52.084;5.412;2022-07-29T06:24:46;16.60;95.40
61912;DHT22;49973;52.084;5.412;2022-07-29T06:27:16;16.60;95.60
61912;DHT22;49973;52.084;5.412;2022-07-29T06:29:45;16.60;95.70
61912;DHT22;49973;52.084;5.412;2022-07-29T06:32:14;16.70;95.80
61912;DHT22;49973;52.084;5.412;2022-07-29T06:34:42;16.70;95.90
61912;DHT22;49973;52.084;5.412;2022-07-29T06:37:15;16.90;96.00
61912;DHT22;49973;52.084;5.412;2022-07-29T06:39:45;17.00;96.20
61912;DHT22;49973;52.084;5.412;2022-07-29T06:42:15;17.20;96.40
61912;DHT22;49973;52.084;5.412;2022-07-29T06:44:43;17.40;96.60
61912;DHT22;49973;52.084;5.412;2022-07-29T06:47:12;17.60;96.90
61912;DHT22;49973;52.084;5.412;2022-07-29T06:49:41;17.80;97.10
61912;DHT22;49973;52.084;5.412;2022-07-29T06:52:10;18.00;97.20
61912;DHT22;49973;52.084;5.412;2022-07-29T06:54:39;18.10;97.20
61912;DHT22;49973;52.084;5.412;2022-07-29T06:57:16;18.10;97.20
61912;DHT22;49973;52.084;5.412;2022-07-29T06:59:45;18.10;97.20
61912;DHT22;49973;52.084;5.412;2022-07-29T07:02:13;18.10;97.20
61912;DHT22;49973;52.084;5.412;2022-07-29T07:04:42;18.00;97.20
61912;DHT22;49973;52.084;5.412;2022-07-29T07:07:10;18.00;97.20
61912;DHT22;49973;52.084;5.412;2022-07-29T07:09:39;17.90;97.20
61912;DHT22;49973;52.084;5.412;2022-07-29T07:12:08;18.00;97.50
61912;DHT22;49973;52.084;5.412;2022-07-29T07:14:38;18.00;97.80
61912;DHT22;49973;52.084;5.412;2022-07-29T07:17:10;18.20;98.10
61912;DHT22;49973;52.084;5.412;2022-07-29T07:19:39;18.30;98.30
61912;DHT22;49973;52.084;5.412;2022-07-29T07:22:08;18.40;98.50
61912;DHT22;49973;52.084;5.412;2022-07-29T07:24:37;18.60;98.70
61912;DHT22;49973;52.084;5.412;2022-07-29T07:27:06;18.70;98.70
61912;DHT22;49973;52.084;5.412;2022-07-29T07:29:34;18.80;98.70
61912;DHT22;49973;52.084;5.412;2022-07-29T07:32:05;18.90;98.70
61912;DHT22;49973;52.084;5.412;2022-07-29T07:34:34;19.00;98.80
61912;DHT22;49973;52.084;5.412;2022-07-29T07:37:05;19.10;99.10
61912;DHT22;49973;52.084;5.412;2022-07-29T07:39:34;19.40;99.40
61912;DHT22;49973;52.084;5.412;2022-07-29T07:42:03;19.60;99.60
61912;DHT22;49973;52.084;5.412;2022-07-29T07:44:32;19.90;99.90
61912;DHT22;49973;52.084;5.412;2022-07-29T07:47:24;20.20;99.90
61912;DHT22;49973;52.084;5.412;2022-07-29T07:49:54;20.50;99.90
61912;DHT22;49973;52.084;5.412;2022-07-29T07:52:22;20.70;99.90
61912;DHT22;49973;52.084;5.412;2022-07-29T07:54:51;20.90;99.90
61912;DHT22;49973;52.084;5.412;2022-07-29T07:57:20;21.20;99.90
61912;DHT22;49973;52.084;5.412;2022-07-29T07:59:48;21.40;99.90
61912;DHT22;49973;52.084;5.412;2022-07-29T08:02:17;21.60;99.90
61912;DHT22;49973;52.084;5.412;2022-07-29T08:04:47;21.90;99.90
61912;DHT22;49973;52.084;5.412;2022-07-29T08:07:16;21.90;99.90
61912;DHT22;49973;52.084;5.412;2022-07-29T08:09:44;21.80;99.90
61912;DHT22;49973;52.084;5.412;2022-07-29T08:12:13;21.70;99.90
61912;DHT22;49973;52.084;5.412;2022-07-29T08:14:41;21.60;99.90
61912;DHT22;49973;52.084;5.412;2022-07-29T08:17:10;21.50;99.90
61912;DHT22;49973;52.084;5.412;2022-07-29T08:19:40;21.40;99.90
61912;DHT22;49973;52.084;5.412;2022-07-29T08:22:13;21.30;99.80
61912;DHT22;49973;52.084;5.412;2022-07-29T08:24:42;21.30;99.80
61912;DHT22;49973;52.084;5.412;2022-07-29T08:27:23;21.20;99.70
61912;DHT22;49973;52.084;5.412;2022-07-29T08:30:10;21.20;99.70
61912;DHT22;49973;52.084;5.412;2022-07-29T08:32:39;21.30;99.80
61912;DHT22;49973;52.084;5.412;2022-07-29T08:35:24;21.40;99.80
61912;DHT22;49973;52.084;5.412;2022-07-29T08:37:54;21.40;99.70
61912;DHT22;49973;52.084;5.412;2022-07-29T08:40:24;21.40;99.60
61912;DHT22;49973;52.084;5.412;2022-07-29T08:43:03;21.40;99.50
61912;DHT22;49973;52.084;5.412;2022-07-29T08:45:41;21.30;99.50
61912;DHT22;49973;52.084;5.412;2022-07-29T08:48:18;21.30;99.50
61912;DHT22;49973;52.084;5.412;2022-07-29T08:50:50;21.20;99.50
61912;DHT22;49973;52.084;5.412;2022-07-29T08:53:24;21.20;99.60
61912;DHT22;49973;52.084;5.412;2022-07-29T08:55:55;21.20;99.60
61912;DHT22;49973;52.084;5.412;2022-07-29T08:58:24;21.30;99.60
61912;DHT22;49973;52.084;5.412;2022-07-29T09:00:54;21.40;99.70
61912;DHT22;49973;52.084;5.412;2022-07-29T09:03:29;21.50;99.70
61912;DHT22;49973;52.084;5.412;2022-07-29T09:05:58;21.60;99.90
61912;DHT22;49973;52.084;5.412;2022-07-29T09:08:30;21.80;99.90
61912;DHT22;49973;52.084;5.412;2022-07-29T09:11:01;22.10;99.90
61912;DHT22;49973;52.084;5.412;2022-07-29T09:13:32;22.40;99.90
61912;DHT22;49973;52.084;5.412;2022-07-29T09:16:00;22.70;99.90
61912;DHT22;49973;52.084;5.412;2022-07-29T09:18:37;22.90;99.90
61912;DHT22;49973;52.084;5.412;2022-07-29T09:21:07;23.10;99.90
61912;DHT22;49973;52.084;5.412;2022-07-29T09:24:03;23.30;99.90
61912;DHT22;49973;52.084;5.412;2022-07-29T09:26:34;23.50;99.90
61912;DHT22;49973;52.084;5.412;2022-07-29T09:29:09;23.60;99.90
61912;DHT22;49973;52.084;5.412;2022-07-29T09:31:40;23.70;99.90
61912;DHT22;49973;52.084;5.412;2022-07-29T09:34:10;23.90;99.90
61912;DHT22;49973;52.084;5.412;2022-07-29T09:36:40;24.00;99.90
61912;DHT22;49973;52.084;5.412;2022-07-29T09:39:10;24.30;99.90
61912;DHT22;49973;52.084;5.412;2022-07-29T09:41:47;24.40;99.90
61912;DHT22;49973;52.084;5.412;2022-07-29T09:44:16;24.60;99.90
61912;DHT22;49973;52.084;5.412;2022-07-29T09:46:56;24.70;99.90
61912;DHT22;49973;52.084;5.412;2022-07-29T09:49:25;24.80;99.80
61912;DHT22;49973;52.084;5.412;2022-07-29T09:52:06;24.70;99.40
61912;DHT22;49973;52.084;5.412;2022-07-29T09:54:36;24.70;99.60
61912;DHT22;49973;52.084;5.412;2022-07-29T09:57:06;24.70;99.40
61912;DHT22;49973;52.084;5.412;2022-07-29T09:59:37;24.70;99.40
61912;DHT22;49973;52.084;5.412;2022-07-29T10:02:19;24.70;99.30
61912;DHT22;49973;52.084;5.412;2022-07-29T10:04:50;24.70;99.20
61912;DHT22;49973;52.084;5.412;2022-07-29T10:07:19;24.80;99.10
61912;DHT22;49973;52.084;5.412;2022-07-29T10:09:52;24.90;99.00
61912;DHT22;49973;52.084;5.412;2022-07-29T10:12:22;24.90;98.90
61912;DHT22;49973;52.084;5.412;2022-07-29T10:14:51;24.90;98.80
61912;DHT22;49973;52.084;5.412;2022-07-29T10:17:20;25.00;98.70
61912;DHT22;49973;52.084;5.412;2022-07-29T10:19:49;25.00;98.60
61912;DHT22;49973;52.084;5.412;2022-07-29T10:22:18;25.10;98.60
61912;DHT22;49973;52.084;5.412;2022-07-29T10:25:09;25.20;98.60
61912;DHT22;49973;52.084;5.412;2022-07-29T10:27:39;25.40;98.40
61912;DHT22;49973;52.084;5.412;2022-07-29T10:30:08;25.60;98.20
61912;DHT22;49973;52.084;5.412;2022-07-29T10:32:56;25.70;98.10
61912;DHT22;49973;52.084;5.412;2022-07-29T10:35:44;25.80;98.00
61912;DHT22;49973;52.084;5.412;2022-07-29T10:38:30;25.90;97.70
61912;DHT22;49973;52.084;5.412;2022-07-29T10:41:16;25.90;97.60
61912;DHT22;49973;52.084;5.412;2022-07-29T10:44:14;26.00;97.70
61912;DHT22;49973;52.084;5.412;2022-07-29T10:46:49;26.10;97.60
61912;DHT22;49973;52.084;5.412;2022-07-29T10:49:20;26.30;97.60
61912;DHT22;49973;52.084;5.412;2022-07-29T10:51:53;26.50;97.40
61912;DHT22;49973;52.084;5.412;2022-07-29T10:54:39;26.50;97.20
61912;DHT22;49973;52.084;5.412;2022-07-29T10:57:23;26.60;97.20
61912;DHT22;49973;52.084;5.412;2022-07-29T11:00:31;26.70;97.20
61912;DHT22;49973;52.084;5.412;2022-07-29T11:03:00;26.80;97.20
61912;DHT22;49973;52.084;5.412;2022-07-29T11:05:54;26.90;97.10
61912;DHT22;49973;52.084;5.412;2022-07-29T11:08:26;27.10;97.10
61912;DHT22;49973;52.084;5.412;2022-07-29T11:14:57;27.20;96.60
61912;DHT22;49973;52.084;5.412;2022-07-29T11:17:26;27.10;96.50
61912;DHT22;49973;52.084;5.412;2022-07-29T11:20:32;26.80;96.20
61912;DHT22;49973;52.084;5.412;2022-07-29T11:23:24;26.70;96.30
61912;DHT22;49973;52.084;5.412;2022-07-29T11:26:13;26.70;96.10
61912;DHT22;49973;52.084;5.412;2022-07-29T11:28:54;26.70;96.10
61912;DHT22;49973;52.084;5.412;2022-07-29T11:31:38;26.50;96.10
61912;DHT22;49973;52.084;5.412;2022-07-29T11:34:19;26.30;96.40
61912;DHT22;49973;52.084;5.412;2022-07-29T11:37:14;26.30;96.20
61912;DHT22;49973;52.084;5.412;2022-07-29T11:39:45;26.40;96.30
61912;DHT22;49973;52.084;5.412;2022-07-29T11:42:46;26.70;96.40
61912;DHT22;49973;52.084;5.412;2022-07-29T11:45:25;27.00;96.40
61912;DHT22;49973;52.084;5.412;2022-07-29T11:48:19;27.30;96.40
61912;DHT22;49973;52.084;5.412;2022-07-29T11:50:56;27.60;96.30
61912;DHT22;49973;52.084;5.412;2022-07-29T11:53:25;27.90;96.30
61912;DHT22;49973;52.084;5.412;2022-07-29T11:55:59;28.30;96.50
61912;DHT22;49973;52.084;5.412;2022-07-29T11:58:30;28.60;96.50
61912;DHT22;49973;52.084;5.412;2022-07-29T12:00:59;28.90;96.50
61912;DHT22;49973;52.084;5.412;2022-07-29T12:03:32;29.30;96.50
61912;DHT22;49973;52.084;5.412;2022-07-29T12:06:11;29.60;96.30
61912;DHT22;49973;52.084;5.412;2022-07-29T12:08:42;29.80;96.20
61912;DHT22;49973;52.084;5.412;2022-07-29T12:11:15;29.90;95.90
61912;DHT22;49973;52.084;5.412;2022-07-29T12:13:48;30.10;95.90
61912;DHT22;49973;52.084;5.412;2022-07-29T12:16:18;30.20;95.80
61912;DHT22;49973;52.084;5.412;2022-07-29T12:18:58;30.40;95.60
61912;DHT22;49973;52.084;5.412;2022-07-29T12:21:28;30.50;95.60
61912;DHT22;49973;52.084;5.412;2022-07-29T12:23:57;30.70;95.50
61912;DHT22;49973;52.084;5.412;2022-07-29T12:26:35;30.90;95.50
61912;DHT22;49973;52.084;5.412;2022-07-29T12:29:07;31.20;95.10
61912;DHT22;49973;52.084;5.412;2022-07-29T12:32:00;31.10;94.70
61912;DHT22;49973;52.084;5.412;2022-07-29T12:34:31;31.10;94.70
61912;DHT22;49973;52.084;5.412;2022-07-29T12:37:00;31.20;94.70
61912;DHT22;49973;52.084;5.412;2022-07-29T12:39:29;31.40;94.70
61912;DHT22;49973;52.084;5.412;2022-07-29T12:41:58;31.60;94.60
61912;DHT22;49973;52.084;5.412;2022-07-29T12:44:44;31.70;94.20
61912;DHT22;49973;52.084;5.412;2022-07-29T12:47:13;31.80;94.00
61912;DHT22;49973;52.084;5.412;2022-07-29T12:49:44;31.80;93.80
61912;DHT22;49973;52.084;5.412;2022-07-29T12:52:24;31.90;93.60
61912;DHT22;49973;52.084;5.412;2022-07-29T12:54:53;32.00;93.60
61912;DHT22;49973;52.084;5.412;2022-07-29T12:57:22;32.20;93.40
61912;DHT22;49973;52.084;5.412;2022-07-29T13:00:07;32.40;93.00
61912;DHT22;49973;52.084;5.412;2022-07-29T13:02:39;32.40;92.60
61912;DHT22;49973;52.084;5.412;2022-07-29T13:05:10;32.40;92.50
61912;DHT22;49973;52.084;5.412;2022-07-29T13:07:39;32.50;92.30
61912;DHT22;49973;52.084;5.412;2022-07-29T13:10:23;32.70;92.20
61912;DHT22;49973;52.084;5.412;2022-07-29T13:13:06;32.80;91.80
61912;DHT22;49973;52.084;5.412;2022-07-29T13:15:37;32.70;91.20
61912;DHT22;49973;52.084;5.412;2022-07-29T13:18:26;32.60;91.20
61912;DHT22;49973;52.084;5.412;2022-07-29T13:20:57;32.60;90.90
61912;DHT22;49973;52.084;5.412;2022-07-29T13:23:38;32.70;91.00
61912;DHT22;49973;52.084;5.412;2022-07-29T13:26:06;32.80;90.90
61912;DHT22;49973;52.084;5.412;2022-07-29T13:28:36;32.90;90.80
61912;DHT22;49973;52.084;5.412;2022-07-29T13:31:04;33.10;90.70
61912;DHT22;49973;52.084;5.412;2022-07-29T13:33:33;33.10;90.50
61912;DHT22;49973;52.084;5.412;2022-07-29T13:36:04;33.30;90.40
61912;DHT22;49973;52.084;5.412;2022-07-29T13:38:33;33.30;90.10
61912;DHT22;49973;52.084;5.412;2022-07-29T13:41:02;33.30;89.70
61912;DHT22;49973;52.084;5.412;2022-07-29T13:43:31;33.30;89.10
61912;DHT22;49973;52.084;5.412;2022-07-29T13:46:00;33.20;88.50
61912;DHT22;49973;52.084;5.412;2022-07-29T13:48:29;33.10;88.20
61912;DHT22;49973;52.084;5.412;2022-07-29T13:50:57;33.10;88.20
61912;DHT22;49973;52.084;5.412;2022-07-29T13:53:27;33.30;88.10
61912;DHT22;49973;52.084;5.412;2022-07-29T13:55:56;33.40;87.40
61912;DHT22;49973;52.084;5.412;2022-07-29T13:58:24;33.30;87.00
61912;DHT22;49973;52.084;5.412;2022-07-29T14:00:53;33.40;86.80
61912;DHT22;49973;52.084;5.412;2022-07-29T14:03:22;33.40;86.40
61912;DHT22;49973;52.084;5.412;2022-07-29T14:05:51;33.40;85.90
61912;DHT22;49973;52.084;5.412;2022-07-29T14:08:20;33.30;85.30
61912;DHT22;49973;52.084;5.412;2022-07-29T14:10:51;33.20;85.10
61912;DHT22;49973;52.084;5.412;2022-07-29T14:13:20;33.20;85.00
61912;DHT22;49973;52.084;5.412;2022-07-29T14:15:52;33.40;84.80
61912;DHT22;49973;52.084;5.412;2022-07-29T14:18:21;33.50;84.50
61912;DHT22;49973;52.084;5.412;2022-07-29T14:20:50;33.60;84.30
61912;DHT22;49973;52.084;5.412;2022-07-29T14:23:19;33.90;84.10
61912;DHT22;49973;52.084;5.412;2022-07-29T14:25:48;34.10;83.90
61912;DHT22;49973;52.084;5.412;2022-07-29T14:28:18;34.20;83.20
61912;DHT22;49973;52.084;5.412;2022-07-29T14:30:47;34.00;81.80
61912;DHT22;49973;52.084;5.412;2022-07-29T14:33:16;33.50;80.80
61912;DHT22;49973;52.084;5.412;2022-07-29T14:35:44;32.60;80.20
61912;DHT22;49973;52.084;5.412;2022-07-29T14:38:13;31.90;80.10
61912;DHT22;49973;52.084;5.412;2022-07-29T14:40:42;31.20;79.80
61912;DHT22;49973;52.084;5.412;2022-07-29T14:43:10;30.40;79.50
61912;DHT22;49973;52.084;5.412;2022-07-29T14:45:40;29.70;79.50
61912;DHT22;49973;52.084;5.412;2022-07-29T14:48:09;29.20;79.70
61912;DHT22;49973;52.084;5.412;2022-07-29T14:50:38;28.90;79.90
61912;DHT22;49973;52.084;5.412;2022-07-29T14:53:07;28.90;79.80
61912;DHT22;49973;52.084;5.412;2022-07-29T14:55:36;28.80;79.80
61912;DHT22;49973;52.084;5.412;2022-07-29T14:58:05;28.80;79.90
61912;DHT22;49973;52.084;5.412;2022-07-29T15:00:42;29.00;79.90
61912;DHT22;49973;52.084;5.412;2022-07-29T15:03:10;29.40;80.20
61912;DHT22;49973;52.084;5.412;2022-07-29T15:05:50;29.50;79.90
61912;DHT22;49973;52.084;5.412;2022-07-29T15:08:18;29.40;79.80
61912;DHT22;49973;52.084;5.412;2022-07-29T15:10:47;29.10;79.70
61912;DHT22;49973;52.084;5.412;2022-07-29T15:13:16;28.70;79.40
61912;DHT22;49973;52.084;5.412;2022-07-29T15:15:45;28.30;79.30
61912;DHT22;49973;52.084;5.412;2022-07-29T15:18:14;27.90;79.30
61912;DHT22;49973;52.084;5.412;2022-07-29T15:20:52;27.50;79.20
61912;DHT22;49973;52.084;5.412;2022-07-29T15:23:20;27.10;79.30
61912;DHT22;49973;52.084;5.412;2022-07-29T15:25:49;26.90;79.50
61912;DHT22;49973;52.084;5.412;2022-07-29T15:28:17;26.90;79.80
61912;DHT22;49973;52.084;5.412;2022-07-29T15:30:47;27.20;80.00
61912;DHT22;49973;52.084;5.412;2022-07-29T15:33:16;27.80;80.30
61912;DHT22;49973;52.084;5.412;2022-07-29T15:35:45;28.50;80.60
61912;DHT22;49973;52.084;5.412;2022-07-29T15:38:13;29.20;80.60
61912;DHT22;49973;52.084;5.412;2022-07-29T15:40:42;29.70;80.50
61912;DHT22;49973;52.084;5.412;2022-07-29T15:43:11;30.00;80.40
61912;DHT22;49973;52.084;5.412;2022-07-29T15:45:42;30.40;80.20
61912;DHT22;49973;52.084;5.412;2022-07-29T15:48:37;30.60;80.00
61912;DHT22;49973;52.084;5.412;2022-07-29T15:51:07;30.90;79.80
61912;DHT22;49973;52.084;5.412;2022-07-29T15:53:37;31.10;79.80
61912;DHT22;49973;52.084;5.412;2022-07-29T15:56:20;31.30;79.80
61912;DHT22;49973;52.084;5.412;2022-07-29T15:58:48;31.60;79.80
61912;DHT22;49973;52.084;5.412;2022-07-29T16:01:17;31.90;79.80
61912;DHT22;49973;52.084;5.412;2022-07-29T16:03:47;32.20;79.80
61912;DHT22;49973;52.084;5.412;2022-07-29T16:06:16;32.40;79.50
61912;DHT22;49973;52.084;5.412;2022-07-29T16:08:45;32.50;79.20